createdAt,value
2018-03-07T00:00:32.033Z,93.44
2018-03-07T00:02:58.189Z,93.62
2018-03-07T00:05:24.344Z,93.68
2018-03-07T00:07:50.544Z,93.71
2018-03-07T00:10:16.766Z,93.65
2018-03-07T00:12:42.982Z,93.41
2018-03-07T00:15:09.204Z,93.39
2018-03-07T00:17:35.464Z,93.45
2018-03-07T00:20:01.638Z,93.72
2018-03-07T00:22:27.901Z,93.76
2018-03-07T00:24:54.076Z,93.97
2018-03-07T00:27:20.241Z,94.39
2018-03-07T00:29:46.422Z,94.56
2018-03-07T00:32:12.686Z,94.63
2018-03-07T00:34:38.832Z,94.92
2018-03-07T00:37:05.017Z,94.70
2018-03-07T00:39:31.193Z,94.65
2018-03-07T00:41:57.398Z,94.54
2018-03-07T00:44:23.542Z,94.80
2018-03-07T00:46:49.768Z,94.81
2018-03-07T00:49:15.912Z,94.63
2018-03-07T00:51:42.092Z,94.56
2018-03-07T00:54:08.346Z,94.64
2018-03-07T00:56:34.520Z,94.69
2018-03-07T00:59:00.692Z,94.53
2018-03-07T01:01:26.933Z,94.59
2018-03-07T01:03:53.112Z,94.56
2018-03-07T01:06:20.009Z,94.57
2018-03-07T01:08:46.187Z,95.74
2018-03-07T01:11:12.374Z,95.14
2018-03-07T01:13:38.584Z,94.82
2018-03-07T01:16:04.776Z,94.54
2018-03-07T01:18:30.990Z,94.44
2018-03-07T01:20:57.205Z,94.39
2018-03-07T01:23:23.400Z,94.37
2018-03-07T01:25:49.611Z,94.29
2018-03-07T01:28:15.806Z,94.44
2018-03-07T01:30:42.066Z,94.62
2018-03-07T01:33:08.250Z,94.69
2018-03-07T01:35:34.408Z,94.62
2018-03-07T01:38:00.637Z,94.55
2018-03-07T01:40:26.826Z,94.52
2018-03-07T01:42:52.981Z,94.49
2018-03-07T01:45:19.226Z,94.54
2018-03-07T01:47:45.401Z,94.52
2018-03-07T01:50:12.558Z,94.59
2018-03-07T01:52:38.822Z,94.62
2018-03-07T01:55:05.043Z,94.56
2018-03-07T01:57:31.247Z,94.45
2018-03-07T01:59:57.429Z,94.58
2018-03-07T02:02:23.679Z,94.36
2018-03-07T02:04:49.891Z,94.13
2018-03-07T02:07:16.036Z,93.76
2018-03-07T02:09:42.217Z,93.42
2018-03-07T02:12:08.407Z,93.03
2018-03-07T02:14:34.601Z,92.80
2018-03-07T02:17:01.394Z,92.93
2018-03-07T02:19:27.571Z,93.13
2018-03-07T02:21:53.826Z,93.29
2018-03-07T02:24:19.998Z,93.26
2018-03-07T02:26:46.142Z,93.29
2018-03-07T02:29:12.321Z,93.38
2018-03-07T02:31:38.502Z,93.55
2018-03-07T02:34:04.711Z,93.64
2018-03-07T02:36:31.764Z,93.64
2018-03-07T02:38:57.943Z,93.76
2018-03-07T02:41:24.161Z,93.81
2018-03-07T02:43:50.386Z,93.80
2018-03-07T02:46:16.556Z,94.14
2018-03-07T02:48:42.725Z,94.38
2018-03-07T02:51:08.989Z,94.50
2018-03-07T02:53:35.182Z,94.64
2018-03-07T02:56:01.357Z,94.83
2018-03-07T02:58:27.603Z,95.17
2018-03-07T03:00:53.821Z,95.36
2018-03-07T03:03:19.957Z,95.31
2018-03-07T03:05:46.157Z,95.23
2018-03-07T03:08:12.324Z,95.16
2018-03-07T03:10:39.273Z,95.02
2018-03-07T03:13:05.464Z,94.84
2018-03-07T03:15:31.637Z,94.92
2018-03-07T03:17:57.826Z,94.95
2018-03-07T03:20:24.044Z,94.84
2018-03-07T03:22:50.257Z,94.80
2018-03-07T03:25:16.440Z,94.76
2018-03-07T03:27:42.682Z,94.68
2018-03-07T03:30:08.935Z,94.65
2018-03-07T03:32:35.114Z,94.56
2018-03-07T03:35:01.329Z,94.46
2018-03-07T03:37:27.543Z,94.41
2018-03-07T03:39:53.735Z,94.29
2018-03-07T03:42:20.295Z,94.04
2018-03-07T03:44:46.450Z,93.96
2018-03-07T03:47:12.618Z,93.91
2018-03-07T03:49:38.811Z,94.01
2018-03-07T03:52:05.014Z,94.23
2018-03-07T03:54:32.122Z,94.15
2018-03-07T03:56:58.902Z,94.03
2018-03-07T03:59:25.054Z,93.90
2018-03-07T04:01:51.314Z,93.83
2018-03-07T04:04:17.524Z,93.79
2018-03-07T04:06:43.663Z,93.73
2018-03-07T04:09:09.862Z,93.73
2018-03-07T04:11:36.075Z,93.61
2018-03-07T04:14:02.260Z,93.58
2018-03-07T04:16:29.249Z,93.74
2018-03-07T04:18:55.467Z,93.63
2018-03-07T04:21:21.711Z,93.58
2018-03-07T04:23:47.894Z,93.54
2018-03-07T04:26:14.040Z,93.45
2018-03-07T04:28:40.221Z,93.50
2018-03-07T04:31:06.456Z,93.49
2018-03-07T04:33:32.624Z,93.66
2018-03-07T04:35:58.785Z,93.65
2018-03-07T04:38:26.174Z,93.65
2018-03-07T04:40:52.375Z,93.84
2018-03-07T04:43:18.563Z,93.95
2018-03-07T04:45:44.730Z,93.96
2018-03-07T04:48:10.901Z,93.84
2018-03-07T04:50:37.043Z,93.93
2018-03-07T04:53:03.281Z,93.95
2018-03-07T04:55:29.434Z,93.92
2018-03-07T04:57:55.597Z,93.96
2018-03-07T05:00:21.825Z,93.85
2018-03-07T05:02:48.084Z,93.92
2018-03-07T05:05:14.236Z,93.99
2018-03-07T05:07:40.404Z,93.86
2018-03-07T05:10:06.565Z,93.84
2018-03-07T05:12:32.856Z,93.58
2018-03-07T05:14:59.032Z,93.75
2018-03-07T05:17:25.213Z,93.59
2018-03-07T05:19:51.410Z,93.65
2018-03-07T05:22:17.946Z,93.69
2018-03-07T05:24:44.115Z,93.71
2018-03-07T05:27:10.260Z,93.69
2018-03-07T05:29:36.496Z,93.87
2018-03-07T05:32:02.965Z,93.89
2018-03-07T05:34:29.088Z,93.96
2018-03-07T05:36:55.271Z,94.03
2018-03-07T05:39:21.447Z,94.02
2018-03-07T05:41:47.660Z,93.94
2018-03-07T05:44:13.782Z,93.94
2018-03-07T05:46:40.135Z,94.13
2018-03-07T05:49:06.293Z,94.02
2018-03-07T05:51:32.488Z,94.17
2018-03-07T05:53:59.517Z,94.16
2018-03-07T05:56:25.722Z,94.19
2018-03-07T05:58:51.913Z,94.33
2018-03-07T06:01:18.132Z,94.36
2018-03-07T06:03:44.293Z,94.39
2018-03-07T06:06:10.506Z,94.41
2018-03-07T06:08:36.660Z,94.52
2018-03-07T06:11:02.841Z,94.56
2018-03-07T06:13:29.080Z,94.76
2018-03-07T06:15:55.277Z,94.76
2018-03-07T06:18:21.520Z,94.84
2018-03-07T06:20:47.712Z,94.85
2018-03-07T06:23:13.962Z,94.96
2018-03-07T06:25:40.205Z,94.83
2018-03-07T06:28:06.341Z,94.91
2018-03-07T06:30:32.600Z,94.86
2018-03-07T06:32:58.856Z,94.68
2018-03-07T06:35:25.079Z,94.60
2018-03-07T06:37:51.195Z,94.55
2018-03-07T06:40:17.376Z,94.54
2018-03-07T06:42:43.614Z,94.46
2018-03-07T06:45:09.805Z,94.45
2018-03-07T06:47:36.002Z,94.33
2018-03-07T06:50:02.247Z,94.14
2018-03-07T06:52:28.428Z,94.22
2018-03-07T06:54:54.569Z,94.29
2018-03-07T06:57:20.757Z,94.39
2018-03-07T06:59:46.961Z,94.29
2018-03-07T07:02:13.233Z,94.41
2018-03-07T07:04:39.432Z,94.36
2018-03-07T07:07:05.629Z,94.27
2018-03-07T07:09:31.783Z,94.08
2018-03-07T07:11:58.017Z,93.99
2018-03-07T07:14:24.171Z,93.91
2018-03-07T07:16:50.439Z,93.81
2018-03-07T07:19:16.656Z,93.61
2018-03-07T07:21:42.925Z,93.54
2018-03-07T07:24:09.074Z,93.64
2018-03-07T07:26:35.281Z,93.79
2018-03-07T07:29:01.523Z,93.98
2018-03-07T07:31:27.698Z,94.23
2018-03-07T07:33:53.898Z,94.66
2018-03-07T07:36:20.023Z,94.80
2018-03-07T07:38:46.197Z,95.03
2018-03-07T07:41:12.364Z,95.13
2018-03-07T07:43:38.600Z,95.50
2018-03-07T07:46:04.752Z,95.60
2018-03-07T07:48:31.004Z,95.76
2018-03-07T07:50:57.208Z,96.00
2018-03-07T07:53:23.420Z,96.10
2018-03-07T07:55:49.581Z,96.26
2018-03-07T07:58:15.740Z,96.21
2018-03-07T08:00:42.007Z,96.36
2018-03-07T08:03:08.255Z,96.51
2018-03-07T08:05:34.421Z,96.56
2018-03-07T08:08:00.580Z,96.82
2018-03-07T08:10:26.747Z,96.85
2018-03-07T08:12:52.995Z,96.99
2018-03-07T08:15:19.168Z,96.96
2018-03-07T08:17:45.333Z,97.01
2018-03-07T08:20:11.682Z,97.07
2018-03-07T08:22:37.920Z,97.21
2018-03-07T08:25:04.158Z,97.27
2018-03-07T08:27:30.357Z,97.31
2018-03-07T08:29:56.568Z,97.33
2018-03-07T08:32:22.751Z,97.41
2018-03-07T08:34:48.920Z,97.50
2018-03-07T08:37:15.085Z,97.65
2018-03-07T08:39:41.331Z,97.74
2018-03-07T08:42:07.575Z,97.90
2018-03-07T08:44:33.720Z,97.84
2018-03-07T08:46:59.899Z,97.87
2018-03-07T08:49:26.086Z,97.88
2018-03-07T08:51:52.231Z,97.32
2018-03-07T08:54:18.451Z,96.83
2018-03-07T08:56:44.609Z,96.11
2018-03-07T08:59:10.772Z,95.78
2018-03-07T09:01:37.020Z,95.45
2018-03-07T09:04:03.254Z,94.47
2018-03-07T09:06:29.451Z,93.83
2018-03-07T09:08:55.633Z,93.19
2018-03-07T09:11:21.861Z,93.44
2018-03-07T09:13:48.017Z,92.67
2018-03-07T09:16:14.208Z,93.17
2018-03-07T09:18:40.420Z,92.92
2018-03-07T09:21:06.604Z,91.65
2018-03-07T09:23:32.880Z,92.04
2018-03-07T09:25:59.041Z,91.41
2018-03-07T09:28:25.257Z,91.30
2018-03-07T09:30:51.457Z,89.70
2018-03-07T09:33:17.628Z,89.98
2018-03-07T09:35:43.735Z,89.35
2018-03-07T09:38:09.836Z,90.24
2018-03-07T09:40:36.014Z,91.08
2018-03-07T09:43:02.191Z,90.31
2018-03-07T09:45:28.384Z,90.42
2018-03-07T09:47:54.565Z,90.00
2018-03-07T09:50:20.751Z,90.36
2018-03-07T09:52:46.972Z,90.31
2018-03-07T09:55:13.171Z,90.66
2018-03-07T09:57:39.316Z,91.05
2018-03-07T10:00:05.594Z,90.41
2018-03-07T10:02:31.797Z,90.36
2018-03-07T10:04:57.980Z,90.58
2018-03-07T10:07:24.168Z,90.84
2018-03-07T10:09:50.426Z,91.06
2018-03-07T10:12:16.662Z,91.32
2018-03-07T10:14:42.862Z,91.30
2018-03-07T10:17:09.015Z,90.63
2018-03-07T10:19:35.185Z,91.24
2018-03-07T10:22:01.484Z,91.69
2018-03-07T10:24:27.686Z,91.53
2018-03-07T10:26:53.880Z,91.00
2018-03-07T10:29:20.079Z,91.33
2018-03-07T10:31:46.304Z,91.11
2018-03-07T10:34:12.522Z,90.41
2018-03-07T10:36:38.778Z,90.81
2018-03-07T10:39:04.997Z,91.22
2018-03-07T10:41:31.204Z,90.48
2018-03-07T10:43:57.443Z,90.49
2018-03-07T10:46:23.933Z,90.80
2018-03-07T10:48:50.101Z,91.25
2018-03-07T10:51:16.265Z,91.15
2018-03-07T10:53:42.484Z,90.73
2018-03-07T10:56:08.692Z,90.98
2018-03-07T10:58:35.101Z,90.70
2018-03-07T11:01:01.321Z,91.16
2018-03-07T11:03:27.550Z,90.79
2018-03-07T11:05:53.770Z,89.95
2018-03-07T11:08:19.983Z,88.72
2018-03-07T11:10:46.157Z,89.26
2018-03-07T11:13:12.385Z,89.70
2018-03-07T11:15:38.548Z,89.80
2018-03-07T11:18:04.727Z,89.27
2018-03-07T11:20:30.865Z,90.30
2018-03-07T11:22:57.081Z,89.91
2018-03-07T11:25:23.242Z,89.67
2018-03-07T11:27:49.418Z,89.37
2018-03-07T11:30:16.142Z,89.18
2018-03-07T11:32:42.360Z,89.85
2018-03-07T11:35:08.573Z,89.47
2018-03-07T11:37:34.822Z,89.81
2018-03-07T11:40:01.058Z,89.70
2018-03-07T11:42:27.310Z,90.30
2018-03-07T11:44:53.519Z,90.40
2018-03-07T11:47:19.691Z,90.45
2018-03-07T11:49:45.884Z,90.86
2018-03-07T11:52:12.041Z,91.26
2018-03-07T11:54:38.262Z,91.48
2018-03-07T11:57:04.477Z,92.44
2018-03-07T11:59:30.621Z,91.90
2018-03-07T12:01:56.857Z,92.31
2018-03-07T12:04:23.100Z,90.89
2018-03-07T12:06:49.313Z,91.98
2018-03-07T12:09:15.461Z,92.16
2018-03-07T12:11:41.660Z,91.56
2018-03-07T12:14:07.884Z,91.81
2018-03-07T12:16:34.069Z,91.70
2018-03-07T12:19:00.326Z,91.24
2018-03-07T12:21:26.532Z,91.35
2018-03-07T12:23:52.772Z,91.15
2018-03-07T12:26:18.927Z,91.25
2018-03-07T12:28:45.126Z,91.43
2018-03-07T12:31:11.332Z,91.62
2018-03-07T12:33:37.537Z,92.14
2018-03-07T12:36:03.737Z,92.36
2018-03-07T12:38:29.935Z,92.50
2018-03-07T12:40:56.083Z,92.71
2018-03-07T12:43:22.363Z,92.69
2018-03-07T12:45:48.651Z,92.82
2018-03-07T12:48:14.834Z,92.79
2018-03-07T12:50:41.012Z,92.81
2018-03-07T12:53:07.196Z,92.87
2018-03-07T12:55:33.427Z,93.03
2018-03-07T12:57:59.600Z,93.23
2018-03-07T13:00:25.846Z,93.13
2018-03-07T13:02:52.060Z,93.74
2018-03-07T13:05:18.274Z,93.72
2018-03-07T13:07:44.471Z,93.65
2018-03-07T13:10:10.657Z,93.40
2018-03-07T13:12:36.789Z,93.33
2018-03-07T13:15:03.049Z,93.36
2018-03-07T13:17:29.229Z,93.14
2018-03-07T13:19:55.392Z,93.72
2018-03-07T13:22:21.600Z,93.72
2018-03-07T13:24:47.817Z,93.84
2018-03-07T13:27:13.970Z,93.85
2018-03-07T13:29:40.265Z,93.98
2018-03-07T13:32:06.452Z,94.11
2018-03-07T13:34:32.855Z,94.30
2018-03-07T13:36:59.019Z,94.60
2018-03-07T13:39:25.238Z,94.85
2018-03-07T13:41:51.471Z,94.87
2018-03-07T13:44:17.675Z,94.80
2018-03-07T13:46:43.824Z,95.02
2018-03-07T13:49:09.997Z,95.01
2018-03-07T13:51:36.181Z,95.21
2018-03-07T13:54:02.424Z,95.20
2018-03-07T13:56:28.593Z,95.55
2018-03-07T13:58:54.724Z,95.57
2018-03-07T14:01:20.982Z,95.61
2018-03-07T14:03:47.241Z,95.48
2018-03-07T14:06:13.445Z,95.47
2018-03-07T14:08:39.613Z,95.55
2018-03-07T14:11:05.802Z,95.75
2018-03-07T14:13:31.943Z,95.69
2018-03-07T14:15:58.218Z,95.50
2018-03-07T14:18:24.509Z,95.70
2018-03-07T14:20:50.668Z,95.87
2018-03-07T14:23:17.027Z,96.01
2018-03-07T14:25:43.323Z,96.01
2018-03-07T14:28:09.521Z,96.05
2018-03-07T14:30:35.771Z,95.99
2018-03-07T14:33:02.001Z,96.00
2018-03-07T14:35:28.256Z,96.22
2018-03-07T14:37:54.437Z,96.24
2018-03-07T14:40:20.578Z,96.23
2018-03-07T14:42:46.807Z,95.22
2018-03-07T14:45:13.138Z,95.00
2018-03-07T14:47:39.283Z,95.04
2018-03-07T14:50:05.444Z,95.48
2018-03-07T14:52:31.624Z,95.57
2018-03-07T14:54:57.837Z,95.94
2018-03-07T14:57:23.977Z,95.96
2018-03-07T14:59:50.214Z,96.05
2018-03-07T15:02:16.386Z,95.97
2018-03-07T15:04:42.594Z,95.64
2018-03-07T15:07:08.812Z,95.61
2018-03-07T15:09:35.044Z,95.62
2018-03-07T15:12:01.557Z,95.41
2018-03-07T15:14:27.809Z,95.47
2018-03-07T15:16:53.971Z,95.58
2018-03-07T15:19:20.123Z,95.79
2018-03-07T15:21:46.343Z,96.14
2018-03-07T15:24:12.588Z,96.34
2018-03-07T15:26:38.837Z,96.49
2018-03-07T15:29:05.101Z,96.80
2018-03-07T15:31:31.439Z,96.75
2018-03-07T15:33:57.652Z,96.86
2018-03-07T15:36:23.866Z,96.86
2018-03-07T15:38:50.132Z,96.78
2018-03-07T15:41:16.381Z,96.52
2018-03-07T15:43:42.604Z,96.34
2018-03-07T15:46:08.815Z,96.47
2018-03-07T15:48:35.011Z,96.59
2018-03-07T15:51:01.185Z,96.82
2018-03-07T15:53:27.451Z,96.82
2018-03-07T15:55:53.758Z,96.88
2018-03-07T15:58:19.951Z,96.71
2018-03-07T16:00:46.244Z,96.83
2018-03-07T16:03:12.434Z,96.82
2018-03-07T16:05:38.668Z,96.94
2018-03-07T16:08:04.910Z,96.87
2018-03-07T16:10:31.094Z,96.97
2018-03-07T16:12:57.281Z,97.22
2018-03-07T16:15:23.521Z,97.31
2018-03-07T16:17:49.713Z,97.37
2018-03-07T16:20:15.980Z,97.40
2018-03-07T16:22:42.213Z,97.51
2018-03-07T16:25:08.405Z,97.48
2018-03-07T16:27:34.625Z,97.49
2018-03-07T16:30:00.882Z,97.33
2018-03-07T16:32:27.102Z,97.18
2018-03-07T16:34:53.328Z,97.23
2018-03-07T16:37:19.491Z,97.03
2018-03-07T16:39:45.661Z,96.78
2018-03-07T16:42:11.840Z,96.52
2018-03-07T16:44:38.099Z,96.27
2018-03-07T16:47:04.281Z,95.98
2018-03-07T16:49:30.452Z,96.24
2018-03-07T16:51:56.646Z,95.40
2018-03-07T16:54:22.937Z,95.60
2018-03-07T16:56:49.272Z,95.53
2018-03-07T16:59:15.452Z,95.56
2018-03-07T17:01:41.710Z,95.35
2018-03-07T17:04:07.952Z,95.39
2018-03-07T17:06:34.206Z,95.14
2018-03-07T17:09:00.403Z,94.34
2018-03-07T17:11:26.631Z,93.88
2018-03-07T17:13:52.828Z,94.21
2018-03-07T17:16:19.071Z,94.22
2018-03-07T17:18:45.272Z,94.18
2018-03-07T17:21:11.439Z,94.53
2018-03-07T17:23:37.669Z,94.57
2018-03-07T17:26:03.938Z,94.73
2018-03-07T17:28:30.088Z,95.01
2018-03-07T17:30:56.345Z,95.15
2018-03-07T17:33:22.543Z,95.19
2018-03-07T17:35:48.776Z,95.02
2018-03-07T17:38:15.077Z,95.07
2018-03-07T17:40:41.233Z,95.02
2018-03-07T17:43:07.404Z,94.90
2018-03-07T17:45:33.713Z,94.96
2018-03-07T17:47:59.891Z,95.08
2018-03-07T17:50:26.061Z,95.03
2018-03-07T17:52:52.243Z,95.07
2018-03-07T17:55:18.463Z,95.09
2018-03-07T17:57:44.733Z,95.01
2018-03-07T18:00:10.944Z,95.00
2018-03-07T18:02:37.073Z,95.05
2018-03-07T18:05:03.310Z,95.38
2018-03-07T18:07:29.437Z,95.58
2018-03-07T18:09:55.537Z,95.42
2018-03-07T18:12:21.663Z,95.38
2018-03-07T18:14:47.848Z,95.26
2018-03-07T18:17:13.966Z,95.27
2018-03-07T18:19:40.115Z,95.32
2018-03-07T18:22:06.224Z,95.30
2018-03-07T18:24:32.316Z,95.23
2018-03-07T18:26:58.503Z,95.25
2018-03-07T18:29:24.618Z,95.18
2018-03-07T18:31:50.829Z,95.13
2018-03-07T18:34:16.985Z,95.45
2018-03-07T18:36:43.184Z,95.20
2018-03-07T18:39:09.299Z,95.08
2018-03-07T18:41:35.429Z,94.89
2018-03-07T18:44:01.596Z,94.67
2018-03-07T18:46:27.835Z,94.95
2018-03-07T18:48:54.986Z,94.88
2018-03-07T18:51:22.083Z,94.75
2018-03-07T18:53:48.264Z,94.78
2018-03-07T18:56:14.482Z,94.96
2018-03-07T18:58:40.726Z,95.01
2018-03-07T19:01:06.934Z,95.19
2018-03-07T19:03:33.074Z,95.16
2018-03-07T19:05:59.415Z,94.90
2018-03-07T19:08:25.589Z,94.70
2018-03-07T19:10:53.472Z,94.72
2018-03-07T19:13:19.615Z,94.94
2018-03-07T19:15:45.867Z,95.25
2018-03-07T19:18:12.078Z,95.43
2018-03-07T19:20:38.230Z,95.41
2018-03-07T19:23:04.381Z,95.41
2018-03-07T19:25:30.616Z,95.43
2018-03-07T19:27:56.768Z,95.11
2018-03-07T19:30:22.979Z,94.88
2018-03-07T19:32:49.187Z,94.83
2018-03-07T19:35:15.376Z,94.76
2018-03-07T19:37:41.575Z,94.65
2018-03-07T19:40:07.821Z,94.69
2018-03-07T19:42:34.010Z,94.81
2018-03-07T19:45:00.188Z,95.05
2018-03-07T19:47:26.417Z,95.01
2018-03-07T19:49:52.628Z,95.01
2018-03-07T19:52:18.772Z,95.08
2018-03-07T19:54:45.019Z,95.28
2018-03-07T19:57:11.240Z,95.40
2018-03-07T19:59:37.468Z,95.42
2018-03-07T20:02:03.738Z,95.45
2018-03-07T20:04:29.952Z,95.46
2018-03-07T20:06:56.476Z,95.48
2018-03-07T20:09:22.623Z,95.58
2018-03-07T20:11:48.819Z,95.63
2018-03-07T20:14:15.022Z,95.64
2018-03-07T20:16:41.232Z,95.47
2018-03-07T20:19:07.366Z,95.58
2018-03-07T20:21:33.576Z,95.62
2018-03-07T20:23:59.703Z,95.39
2018-03-07T20:26:25.891Z,95.44
2018-03-07T20:28:53.020Z,95.41
2018-03-07T20:31:19.257Z,95.46
2018-03-07T20:33:45.409Z,95.46
2018-03-07T20:36:11.664Z,95.32
2018-03-07T20:38:37.846Z,95.31
2018-03-07T20:41:04.845Z,95.42
2018-03-07T20:43:31.076Z,95.34
2018-03-07T20:45:57.297Z,95.34
2018-03-07T20:48:23.463Z,95.36
2018-03-07T20:50:49.705Z,95.43
2018-03-07T20:53:15.865Z,95.40
2018-03-07T20:55:42.090Z,95.49
2018-03-07T20:58:08.277Z,95.49
2018-03-07T21:00:34.503Z,95.54
2018-03-07T21:03:00.665Z,95.60
2018-03-07T21:05:26.901Z,95.55
2018-03-07T21:07:53.088Z,95.65
2018-03-07T21:10:19.266Z,95.51
2018-03-07T21:12:45.474Z,95.49
2018-03-07T21:15:11.781Z,95.56
2018-03-07T21:17:37.956Z,95.45
2018-03-07T21:20:04.151Z,95.56
2018-03-07T21:22:30.358Z,95.51
2018-03-07T21:24:56.628Z,95.47
2018-03-07T21:27:22.817Z,95.56
2018-03-07T21:29:49.018Z,95.54
2018-03-07T21:32:15.194Z,95.38
2018-03-07T21:34:41.352Z,95.45
2018-03-07T21:37:07.536Z,95.41
2018-03-07T21:39:33.735Z,95.24
2018-03-07T21:41:59.889Z,95.30
2018-03-07T21:44:26.068Z,95.19
2018-03-07T21:46:52.300Z,95.11
2018-03-07T21:49:18.491Z,95.19
2018-03-07T21:51:44.681Z,95.21
2018-03-07T21:54:10.909Z,95.21
2018-03-07T21:56:37.134Z,95.15
2018-03-07T21:59:03.305Z,95.19
2018-03-07T22:01:29.533Z,95.12
2018-03-07T22:03:55.782Z,95.13
2018-03-07T22:06:22.038Z,95.14
2018-03-07T22:08:48.220Z,95.33
2018-03-07T22:11:14.371Z,95.33
2018-03-07T22:13:40.582Z,95.42
2018-03-07T22:16:06.838Z,95.46
2018-03-07T22:18:33.000Z,95.60
2018-03-07T22:20:59.152Z,95.69
2018-03-07T22:23:25.313Z,95.61
2018-03-07T22:25:51.523Z,95.94
2018-03-07T22:28:17.657Z,96.05
2018-03-07T22:30:43.903Z,96.02
2018-03-07T22:33:10.089Z,96.05
2018-03-07T22:35:36.268Z,96.06
2018-03-07T22:38:02.468Z,96.30
2018-03-07T22:40:28.655Z,96.19
2018-03-07T22:42:54.826Z,96.22
2018-03-07T22:45:27.845Z,96.13
2018-03-07T22:47:54.026Z,96.23
2018-03-07T22:50:20.180Z,96.19
2018-03-07T22:52:46.373Z,96.50
2018-03-07T22:55:12.554Z,96.50
2018-03-07T22:57:38.728Z,96.77
2018-03-07T23:00:11.062Z,96.85
2018-03-07T23:02:37.246Z,97.03
2018-03-07T23:05:03.475Z,97.28
2018-03-07T23:07:29.702Z,97.37
2018-03-07T23:09:55.849Z,97.50
2018-03-07T23:12:22.035Z,97.53
2018-03-07T23:14:48.214Z,97.48
2018-03-07T23:17:14.488Z,97.29
2018-03-07T23:19:40.659Z,97.21
2018-03-07T23:22:06.831Z,97.16
2018-03-07T23:24:33.074Z,97.09
2018-03-07T23:26:59.295Z,97.15
2018-03-07T23:29:25.478Z,97.29
2018-03-07T23:31:51.697Z,97.14
2018-03-07T23:34:17.852Z,97.18
2018-03-07T23:36:44.037Z,97.32
2018-03-07T23:39:10.226Z,97.48
2018-03-07T23:41:36.370Z,97.56
2018-03-07T23:44:02.533Z,97.57
2018-03-07T23:46:28.766Z,97.72
2018-03-07T23:48:54.915Z,97.63
2018-03-07T23:51:21.054Z,97.69
2018-03-07T23:53:47.255Z,97.58
2018-03-07T23:56:13.473Z,97.76
2018-03-07T23:58:39.595Z,97.74
